sensor_id;sensor_type;location;lat;lon;timestamp;temperature;humidity
63899;HTU21D;50070;-32.946;-60.652;2023-05-10T00:00:29;19.68;62.77
63899;HTU21D;50070;-32.946;-60.652;2023-05-10T00:02:56;19.56;62.89
63899;HTU21D;50070;-32.946;-60.652;2023-05-10T00:05:22;19.58;62.95
63899;HTU21D;50070;-32.946;-60.652;2023-05-10T00:07:49;19.63;62.96
63899;HTU21D;50070;-32.946;-60.652;2023-05-10T00:10:16;19.42;64.27
63899;HTU21D;50070;-32.946;-60.652;2023-05-10T00:12:43;19.52;64.18
63899;HTU21D;50070;-32.946;-60.652;2023-05-10T00:15:09;19.48;64.30
63899;HTU21D;50070;-32.946;-60.652;2023-05-10T00:17:36;19.70;63.95
63899;HTU21D;50070;-32.946;-60.652;2023-05-10T00:20:03;19.91;63.21
63899;HTU21D;50070;-32.946;-60.652;2023-05-10T00:22:31;19.69;63.94
63899;HTU21D;50070;-32.946;-60.652;2023-05-10T00:24:58;19.65;63.52
63899;HTU21D;50070;-32.946;-60.652;2023-05-10T00:27:25;19.58;62.94
63899;HTU21D;50070;-32.946;-60.652;2023-05-10T00:29:52;19.61;63.60
63899;HTU21D;50070;-32.946;-60.652;2023-05-10T00:32:18;19.54;63.89
63899;HTU21D;50070;-32.946;-60.652;2023-05-10T00:34:45;19.56;63.98
63899;HTU21D;50070;-32.946;-60.652;2023-05-10T00:37:12;19.53;64.00
63899;HTU21D;50070;-32.946;-60.652;2023-05-10T00:39:38;19.47;64.41
63899;HTU21D;50070;-32.946;-60.652;2023-05-10T00:42:05;19.53;64.37
63899;HTU21D;50070;-32.946;-60.652;2023-05-10T00:44:32;19.56;64.27
63899;HTU21D;50070;-32.946;-60.652;2023-05-10T00:46:59;19.38;65.10
63899;HTU21D;50070;-32.946;-60.652;2023-05-10T00:49:26;19.41;65.02
63899;HTU21D;50070;-32.946;-60.652;2023-05-10T00:51:53;19.44;64.92
63899;HTU21D;50070;-32.946;-60.652;2023-05-10T00:54:20;19.31;65.62
63899;HTU21D;50070;-32.946;-60.652;2023-05-10T00:56:47;19.42;65.38
63899;HTU21D;50070;-32.946;-60.652;2023-05-10T00:59:16;19.53;65.16
63899;HTU21D;50070;-32.946;-60.652;2023-05-10T01:01:43;19.44;64.95
63899;HTU21D;50070;-32.946;-60.652;2023-05-10T01:04:11;19.42;64.53
63899;HTU21D;50070;-32.946;-60.652;2023-05-10T01:06:44;19.33;66.01
63899;HTU21D;50070;-32.946;-60.652;2023-05-10T01:09:11;19.31;66.56
63899;HTU21D;50070;-32.946;-60.652;2023-05-10T01:11:39;19.35;66.76
63899;HTU21D;50070;-32.946;-60.652;2023-05-10T01:14:06;19.32;67.10
63899;HTU21D;50070;-32.946;-60.652;2023-05-10T01:16:38;19.29;67.03
63899;HTU21D;50070;-32.946;-60.652;2023-05-10T01:19:31;19.26;67.24
63899;HTU21D;50070;-32.946;-60.652;2023-05-10T01:38:50;19.36;64.21
63899;HTU21D;50070;-32.946;-60.652;2023-05-10T01:49:50;19.23;66.52
63899;HTU21D;50070;-32.946;-60.652;2023-05-10T01:52:19;19.24;66.45
63899;HTU21D;50070;-32.946;-60.652;2023-05-10T01:55:15;19.31;66.38
63899;HTU21D;50070;-32.946;-60.652;2023-05-10T01:57:44;19.27;67.34
63899;HTU21D;50070;-32.946;-60.652;2023-05-10T02:00:13;19.12;68.90
63899;HTU21D;50070;-32.946;-60.652;2023-05-10T02:02:40;18.98;70.43
63899;HTU21D;50070;-32.946;-60.652;2023-05-10T02:05:10;18.94;71.51
63899;HTU21D;50070;-32.946;-60.652;2023-05-10T02:07:38;18.92;71.87
63899;HTU21D;50070;-32.946;-60.652;2023-05-10T02:10:06;18.81;71.80
63899;HTU21D;50070;-32.946;-60.652;2023-05-10T02:12:47;18.81;71.69
63899;HTU21D;50070;-32.946;-60.652;2023-05-10T02:15:18;18.73;71.36
63899;HTU21D;50070;-32.946;-60.652;2023-05-10T02:17:47;18.70;70.74
63899;HTU21D;50070;-32.946;-60.652;2023-05-10T02:20:14;18.54;72.11
63899;HTU21D;50070;-32.946;-60.652;2023-05-10T02:22:43;18.49;71.39
63899;HTU21D;50070;-32.946;-60.652;2023-05-10T02:25:11;18.51;71.11
63899;HTU21D;50070;-32.946;-60.652;2023-05-10T02:27:42;18.59;70.35
63899;HTU21D;50070;-32.946;-60.652;2023-05-10T02:30:11;18.53;69.63
63899;HTU21D;50070;-32.946;-60.652;2023-05-10T02:32:38;18.55;69.23
63899;HTU21D;50070;-32.946;-60.652;2023-05-10T02:35:06;18.59;68.94
63899;HTU21D;50070;-32.946;-60.652;2023-05-10T02:37:34;18.72;67.80
63899;HTU21D;50070;-32.946;-60.652;2023-05-10T02:40:02;18.62;67.72
63899;HTU21D;50070;-32.946;-60.652;2023-05-10T02:42:32;18.49;67.56
63899;HTU21D;50070;-32.946;-60.652;2023-05-10T02:45:01;18.52;67.38
63899;HTU21D;50070;-32.946;-60.652;2023-05-10T02:47:29;18.72;66.11
63899;HTU21D;50070;-32.946;-60.652;2023-05-10T02:49:59;18.69;66.14
63899;HTU21D;50070;-32.946;-60.652;2023-05-10T02:52:28;18.72;65.69
63899;HTU21D;50070;-32.946;-60.652;2023-05-10T02:55:01;18.58;65.87
63899;HTU21D;50070;-32.946;-60.652;2023-05-10T02:57:34;18.67;65.13
63899;HTU21D;50070;-32.946;-60.652;2023-05-10T03:00:04;18.61;65.13
63899;HTU21D;50070;-32.946;-60.652;2023-05-10T03:02:31;18.41;66.09
63899;HTU21D;50070;-32.946;-60.652;2023-05-10T03:04:58;18.56;65.82
63899;HTU21D;50070;-32.946;-60.652;2023-05-10T03:07:25;18.51;66.66
63899;HTU21D;50070;-32.946;-60.652;2023-05-10T03:09:52;18.52;67.44
63899;HTU21D;50070;-32.946;-60.652;2023-05-10T03:18:22;18.54;68.88
63899;HTU21D;50070;-32.946;-60.652;2023-05-10T03:20:51;18.50;69.42
63899;HTU21D;50070;-32.946;-60.652;2023-05-10T03:23:34;18.61;69.18
63899;HTU21D;50070;-32.946;-60.652;2023-05-10T03:26:01;18.58;69.23
63899;HTU21D;50070;-32.946;-60.652;2023-05-10T03:28:29;18.68;68.76
63899;HTU21D;50070;-32.946;-60.652;2023-05-10T03:30:56;18.22;71.04
63899;HTU21D;50070;-32.946;-60.652;2023-05-10T03:33:23;18.46;70.10
63899;HTU21D;50070;-32.946;-60.652;2023-05-10T03:35:50;18.41;70.54
63899;HTU21D;50070;-32.946;-60.652;2023-05-10T03:38:17;18.42;70.74
63899;HTU21D;50070;-32.946;-60.652;2023-05-10T03:40:44;18.32;71.54
63899;HTU21D;50070;-32.946;-60.652;2023-05-10T03:43:10;18.40;70.50
63899;HTU21D;50070;-32.946;-60.652;2023-05-10T03:45:37;18.39;71.24
63899;HTU21D;50070;-32.946;-60.652;2023-05-10T03:48:04;18.65;70.00
63899;HTU21D;50070;-32.946;-60.652;2023-05-10T03:50:31;18.82;69.30
63899;HTU21D;50070;-32.946;-60.652;2023-05-10T03:52:58;18.93;68.39
63899;HTU21D;50070;-32.946;-60.652;2023-05-10T03:55:24;19.01;67.68
63899;HTU21D;50070;-32.946;-60.652;2023-05-10T03:57:51;18.99;67.30
63899;HTU21D;50070;-32.946;-60.652;2023-05-10T04:00:20;18.82;68.33
63899;HTU21D;50070;-32.946;-60.652;2023-05-10T04:02:46;18.93;68.30
63899;HTU21D;50070;-32.946;-60.652;2023-05-10T04:05:13;19.07;67.47
63899;HTU21D;50070;-32.946;-60.652;2023-05-10T04:07:40;18.81;68.33
63899;HTU21D;50070;-32.946;-60.652;2023-05-10T04:10:07;18.83;68.62
63899;HTU21D;50070;-32.946;-60.652;2023-05-10T04:12:34;18.85;68.73
63899;HTU21D;50070;-32.946;-60.652;2023-05-10T04:15:01;18.79;69.36
63899;HTU21D;50070;-32.946;-60.652;2023-05-10T04:17:27;18.76;69.64
63899;HTU21D;50070;-32.946;-60.652;2023-05-10T04:19:55;18.86;69.29
63899;HTU21D;50070;-32.946;-60.652;2023-05-10T04:22:22;18.79;69.84
63899;HTU21D;50070;-32.946;-60.652;2023-05-10T04:24:48;18.76;70.26
63899;HTU21D;50070;-32.946;-60.652;2023-05-10T04:27:15;18.57;70.90
63899;HTU21D;50070;-32.946;-60.652;2023-05-10T04:29:42;18.82;69.57
63899;HTU21D;50070;-32.946;-60.652;2023-05-10T04:32:09;18.89;68.20
63899;HTU21D;50070;-32.946;-60.652;2023-05-10T04:34:36;18.83;69.41
63899;HTU21D;50070;-32.946;-60.652;2023-05-10T04:37:03;18.96;68.63
63899;HTU21D;50070;-32.946;-60.652;2023-05-10T04:39:30;19.13;67.78
63899;HTU21D;50070;-32.946;-60.652;2023-05-10T04:41:58;19.09;67.17
63899;HTU21D;50070;-32.946;-60.652;2023-05-10T04:44:24;18.96;68.00
63899;HTU21D;50070;-32.946;-60.652;2023-05-10T04:46:51;18.82;69.04
63899;HTU21D;50070;-32.946;-60.652;2023-05-10T04:49:18;19.00;68.36
63899;HTU21D;50070;-32.946;-60.652;2023-05-10T04:51:45;19.13;67.68
63899;HTU21D;50070;-32.946;-60.652;2023-05-10T04:54:11;19.01;68.62
63899;HTU21D;50070;-32.946;-60.652;2023-05-10T04:56:38;18.56;70.77
63899;HTU21D;50070;-32.946;-60.652;2023-05-10T04:59:05;18.70;69.96
63899;HTU21D;50070;-32.946;-60.652;2023-05-10T05:01:32;18.85;69.71
63899;HTU21D;50070;-32.946;-60.652;2023-05-10T05:03:58;18.62;69.68
63899;HTU21D;50070;-32.946;-60.652;2023-05-10T05:06:28;18.58;68.78
63899;HTU21D;50070;-32.946;-60.652;2023-05-10T05:08:55;18.68;68.20
63899;HTU21D;50070;-32.946;-60.652;2023-05-10T05:11:22;18.59;67.95
63899;HTU21D;50070;-32.946;-60.652;2023-05-10T05:13:48;18.61;67.81
63899;HTU21D;50070;-32.946;-60.652;2023-05-10T05:16:15;18.70;66.94
63899;HTU21D;50070;-32.946;-60.652;2023-05-10T05:18:42;18.76;66.92
63899;HTU21D;50070;-32.946;-60.652;2023-05-10T05:21:16;18.83;64.30
63899;HTU21D;50070;-32.946;-60.652;2023-05-10T05:23:43;18.85;65.49
63899;HTU21D;50070;-32.946;-60.652;2023-05-10T05:26:10;18.71;65.92
63899;HTU21D;50070;-32.946;-60.652;2023-05-10T05:28:37;18.52;66.41
63899;HTU21D;50070;-32.946;-60.652;2023-05-10T05:31:05;18.48;66.11
63899;HTU21D;50070;-32.946;-60.652;2023-05-10T05:33:32;18.73;64.58
63899;HTU21D;50070;-32.946;-60.652;2023-05-10T05:36:01;18.83;65.46
63899;HTU21D;50070;-32.946;-60.652;2023-05-10T05:38:28;18.50;66.75
63899;HTU21D;50070;-32.946;-60.652;2023-05-10T05:40:55;18.36;67.22
63899;HTU21D;50070;-32.946;-60.652;2023-05-10T05:43:22;18.43;67.16
63899;HTU21D;50070;-32.946;-60.652;2023-05-10T05:45:49;18.32;68.00
63899;HTU21D;50070;-32.946;-60.652;2023-05-10T05:48:16;18.37;68.10
63899;HTU21D;50070;-32.946;-60.652;2023-05-10T05:50:42;18.35;68.38
63899;HTU21D;50070;-32.946;-60.652;2023-05-10T05:53:09;18.33;68.39
63899;HTU21D;50070;-32.946;-60.652;2023-05-10T05:55:36;18.34;68.51
63899;HTU21D;50070;-32.946;-60.652;2023-05-10T05:58:03;18.32;68.52
63899;HTU21D;50070;-32.946;-60.652;2023-05-10T06:00:29;18.37;68.48
63899;HTU21D;50070;-32.946;-60.652;2023-05-10T06:02:57;18.50;68.10
63899;HTU21D;50070;-32.946;-60.652;2023-05-10T06:05:23;18.32;69.27
63899;HTU21D;50070;-32.946;-60.652;2023-05-10T06:07:50;18.33;69.33
63899;HTU21D;50070;-32.946;-60.652;2023-05-10T06:10:17;18.27;69.79
63899;HTU21D;50070;-32.946;-60.652;2023-05-10T06:12:44;18.21;70.13
63899;HTU21D;50070;-32.946;-60.652;2023-05-10T06:15:11;18.11;70.41
63899;HTU21D;50070;-32.946;-60.652;2023-05-10T06:17:37;18.25;69.81
63899;HTU21D;50070;-32.946;-60.652;2023-05-10T06:20:05;18.40;68.94
63899;HTU21D;50070;-32.946;-60.652;2023-05-10T06:22:32;18.55;67.95
63899;HTU21D;50070;-32.946;-60.652;2023-05-10T06:24:59;18.33;69.48
63899;HTU21D;50070;-32.946;-60.652;2023-05-10T06:27:25;18.14;69.23
63899;HTU21D;50070;-32.946;-60.652;2023-05-10T06:29:52;18.20;68.52
63899;HTU21D;50070;-32.946;-60.652;2023-05-10T06:32:19;18.18;65.83
63899;HTU21D;50070;-32.946;-60.652;2023-05-10T06:34:45;18.21;64.59
63899;HTU21D;50070;-32.946;-60.652;2023-05-10T06:37:12;18.43;63.36
63899;HTU21D;50070;-32.946;-60.652;2023-05-10T06:39:39;18.53;63.32
63899;HTU21D;50070;-32.946;-60.652;2023-05-10T06:42:06;18.22;66.24
63899;HTU21D;50070;-32.946;-60.652;2023-05-10T06:44:32;18.03;67.73
63899;HTU21D;50070;-32.946;-60.652;2023-05-10T06:46:59;17.88;67.11
63899;HTU21D;50070;-32.946;-60.652;2023-05-10T06:49:26;17.84;66.57
63899;HTU21D;50070;-32.946;-60.652;2023-05-10T06:51:53;17.83;66.17
63899;HTU21D;50070;-32.946;-60.652;2023-05-10T06:54:19;17.91;65.41
63899;HTU21D;50070;-32.946;-60.652;2023-05-10T06:56:46;17.87;65.84
63899;HTU21D;50070;-32.946;-60.652;2023-05-10T06:59:13;17.74;66.40
63899;HTU21D;50070;-32.946;-60.652;2023-05-10T07:01:41;17.80;66.82
63899;HTU21D;50070;-32.946;-60.652;2023-05-10T07:04:07;17.69;67.17
63899;HTU21D;50070;-32.946;-60.652;2023-05-10T07:06:34;17.66;67.65
63899;HTU21D;50070;-32.946;-60.652;2023-05-10T07:09:02;17.67;67.43
63899;HTU21D;50070;-32.946;-60.652;2023-05-10T07:11:28;17.62;67.60
63899;HTU21D;50070;-32.946;-60.652;2023-05-10T07:13:55;17.69;67.68
63899;HTU21D;50070;-32.946;-60.652;2023-05-10T07:16:21;17.74;67.42
63899;HTU21D;50070;-32.946;-60.652;2023-05-10T07:18:48;17.74;68.06
63899;HTU21D;50070;-32.946;-60.652;2023-05-10T07:21:16;17.68;68.42
63899;HTU21D;50070;-32.946;-60.652;2023-05-10T07:23:43;17.67;68.75
63899;HTU21D;50070;-32.946;-60.652;2023-05-10T07:26:09;17.73;68.14
63899;HTU21D;50070;-32.946;-60.652;2023-05-10T07:28:37;17.84;67.90
63899;HTU21D;50070;-32.946;-60.652;2023-05-10T07:31:05;17.95;67.94
63899;HTU21D;50070;-32.946;-60.652;2023-05-10T07:33:31;18.15;67.82
63899;HTU21D;50070;-32.946;-60.652;2023-05-10T07:35:58;17.64;68.26
63899;HTU21D;50070;-32.946;-60.652;2023-05-10T07:38:25;17.82;67.43
63899;HTU21D;50070;-32.946;-60.652;2023-05-10T07:40:52;17.70;68.15
63899;HTU21D;50070;-32.946;-60.652;2023-05-10T07:43:18;17.68;68.62
63899;HTU21D;50070;-32.946;-60.652;2023-05-10T07:45:45;17.91;67.69
63899;HTU21D;50070;-32.946;-60.652;2023-05-10T07:48:12;17.69;69.69
63899;HTU21D;50070;-32.946;-60.652;2023-05-10T07:50:38;17.56;70.58
63899;HTU21D;50070;-32.946;-60.652;2023-05-10T07:53:05;17.64;70.40
63899;HTU21D;50070;-32.946;-60.652;2023-05-10T07:55:32;17.77;70.68
63899;HTU21D;50070;-32.946;-60.652;2023-05-10T07:57:59;17.58;72.57
63899;HTU21D;50070;-32.946;-60.652;2023-05-10T08:00:27;17.54;73.68
63899;HTU21D;50070;-32.946;-60.652;2023-05-10T08:02:53;17.46;74.44
63899;HTU21D;50070;-32.946;-60.652;2023-05-10T08:05:20;17.24;76.31
63899;HTU21D;50070;-32.946;-60.652;2023-05-10T08:07:47;17.16;77.27
63899;HTU21D;50070;-32.946;-60.652;2023-05-10T08:10:14;17.07;77.78
63899;HTU21D;50070;-32.946;-60.652;2023-05-10T08:12:40;16.95;78.40
63899;HTU21D;50070;-32.946;-60.652;2023-05-10T08:15:08;16.88;78.78
63899;HTU21D;50070;-32.946;-60.652;2023-05-10T08:17:35;16.86;78.94
63899;HTU21D;50070;-32.946;-60.652;2023-05-10T08:20:02;17.13;77.53
63899;HTU21D;50070;-32.946;-60.652;2023-05-10T08:22:29;16.92;79.15
63899;HTU21D;50070;-32.946;-60.652;2023-05-10T08:24:55;17.19;78.40
63899;HTU21D;50070;-32.946;-60.652;2023-05-10T08:27:22;17.05;79.40
63899;HTU21D;50070;-32.946;-60.652;2023-05-10T08:29:49;16.75;80.98
63899;HTU21D;50070;-32.946;-60.652;2023-05-10T08:32:16;16.89;80.36
63899;HTU21D;50070;-32.946;-60.652;2023-05-10T08:34:43;17.15;79.11
63899;HTU21D;50070;-32.946;-60.652;2023-05-10T08:37:09;16.87;80.47
63899;HTU21D;50070;-32.946;-60.652;2023-05-10T08:39:39;16.71;81.53
63899;HTU21D;50070;-32.946;-60.652;2023-05-10T08:42:06;16.90;80.94
63899;HTU21D;50070;-32.946;-60.652;2023-05-10T08:44:35;16.85;80.98
63899;HTU21D;50070;-32.946;-60.652;2023-05-10T08:47:05;17.00;80.28
63899;HTU21D;50070;-32.946;-60.652;2023-05-10T08:49:33;17.09;79.71
63899;HTU21D;50070;-32.946;-60.652;2023-05-10T08:52:03;17.11;80.04
63899;HTU21D;50070;-32.946;-60.652;2023-05-10T08:54:34;17.02;81.46
63899;HTU21D;50070;-32.946;-60.652;2023-05-10T08:57:01;17.13;81.50
63899;HTU21D;50070;-32.946;-60.652;2023-05-10T08:59:28;17.21;81.46
63899;HTU21D;50070;-32.946;-60.652;2023-05-10T09:01:57;17.11;82.23
63899;HTU21D;50070;-32.946;-60.652;2023-05-10T09:04:25;16.96;82.92
63899;HTU21D;50070;-32.946;-60.652;2023-05-10T09:06:52;17.25;81.75
63899;HTU21D;50070;-32.946;-60.652;2023-05-10T09:09:19;16.69;84.24
63899;HTU21D;50070;-32.946;-60.652;2023-05-10T09:11:47;16.75;83.94
63899;HTU21D;50070;-32.946;-60.652;2023-05-10T09:14:15;16.79;83.39
63899;HTU21D;50070;-32.946;-60.652;2023-05-10T09:16:43;16.90;82.80
63899;HTU21D;50070;-32.946;-60.652;2023-05-10T09:19:10;17.01;81.88
63899;HTU21D;50070;-32.946;-60.652;2023-05-10T09:21:37;17.07;81.78
63899;HTU21D;50070;-32.946;-60.652;2023-05-10T09:24:07;17.07;81.65
63899;HTU21D;50070;-32.946;-60.652;2023-05-10T09:26:35;17.10;81.72
63899;HTU21D;50070;-32.946;-60.652;2023-05-10T09:29:12;17.08;81.91
63899;HTU21D;50070;-32.946;-60.652;2023-05-10T09:31:46;17.05;82.04
63899;HTU21D;50070;-32.946;-60.652;2023-05-10T09:34:18;17.02;82.12
63899;HTU21D;50070;-32.946;-60.652;2023-05-10T09:37:02;17.25;80.91
63899;HTU21D;50070;-32.946;-60.652;2023-05-10T09:39:35;17.32;80.43
63899;HTU21D;50070;-32.946;-60.652;2023-05-10T09:42:05;17.11;81.38
63899;HTU21D;50070;-32.946;-60.652;2023-05-10T09:44:33;17.15;81.96
63899;HTU21D;50070;-32.946;-60.652;2023-05-10T09:47:03;17.09;82.86
63899;HTU21D;50070;-32.946;-60.652;2023-05-10T09:49:30;17.23;81.52
63899;HTU21D;50070;-32.946;-60.652;2023-05-10T09:54:28;17.16;81.72
63899;HTU21D;50070;-32.946;-60.652;2023-05-10T09:56:55;17.21;81.72
63899;HTU21D;50070;-32.946;-60.652;2023-05-10T09:59:25;17.16;81.52
63899;HTU21D;50070;-32.946;-60.652;2023-05-10T10:01:57;17.11;81.62
63899;HTU21D;50070;-32.946;-60.652;2023-05-10T10:04:25;17.18;81.30
63899;HTU21D;50070;-32.946;-60.652;2023-05-10T10:07:03;17.24;80.85
63899;HTU21D;50070;-32.946;-60.652;2023-05-10T10:09:30;17.21;80.76
63899;HTU21D;50070;-32.946;-60.652;2023-05-10T10:11:57;17.07;81.14
63899;HTU21D;50070;-32.946;-60.652;2023-05-10T10:14:25;17.16;80.79
63899;HTU21D;50070;-32.946;-60.652;2023-05-10T10:16:52;17.17;80.65
63899;HTU21D;50070;-32.946;-60.652;2023-05-10T10:19:19;17.29;80.28
63899;HTU21D;50070;-32.946;-60.652;2023-05-10T10:21:50;17.26;80.37
63899;HTU21D;50070;-32.946;-60.652;2023-05-10T10:24:17;17.22;80.44
63899;HTU21D;50070;-32.946;-60.652;2023-05-10T10:26:44;17.25;80.63
63899;HTU21D;50070;-32.946;-60.652;2023-05-10T10:34:28;17.35;80.15
63899;HTU21D;50070;-32.946;-60.652;2023-05-10T10:36:56;17.22;80.73
63899;HTU21D;50070;-32.946;-60.652;2023-05-10T10:39:24;17.21;80.83
63899;HTU21D;50070;-32.946;-60.652;2023-05-10T10:41:54;17.48;79.08
63899;HTU21D;50070;-32.946;-60.652;2023-05-10T10:47:03;17.45;78.44
63899;HTU21D;50070;-32.946;-60.652;2023-05-10T10:52:15;17.33;76.71
63899;HTU21D;50070;-32.946;-60.652;2023-05-10T10:54:51;17.53;76.91
63899;HTU21D;50070;-32.946;-60.652;2023-05-10T10:57:19;17.54;75.02
63899;HTU21D;50070;-32.946;-60.652;2023-05-10T10:59:49;17.54;74.80
63899;HTU21D;50070;-32.946;-60.652;2023-05-10T11:02:42;17.61;73.98
63899;HTU21D;50070;-32.946;-60.652;2023-05-10T11:08:31;17.66;73.22
63899;HTU21D;50070;-32.946;-60.652;2023-05-10T11:13:34;17.56;74.02
63899;HTU21D;50070;-32.946;-60.652;2023-05-10T11:16:22;17.50;74.19
63899;HTU21D;50070;-32.946;-60.652;2023-05-10T11:19:04;17.64;72.69
63899;HTU21D;50070;-32.946;-60.652;2023-05-10T11:21:32;17.64;72.34
63899;HTU21D;50070;-32.946;-60.652;2023-05-10T11:24:00;17.55;72.14
63899;HTU21D;50070;-32.946;-60.652;2023-05-10T11:26:36;17.63;71.70
63899;HTU21D;50070;-32.946;-60.652;2023-05-10T11:29:03;17.68;71.34
63899;HTU21D;50070;-32.946;-60.652;2023-05-10T11:31:30;17.67;70.86
63899;HTU21D;50070;-32.946;-60.652;2023-05-10T11:33:59;17.58;70.92
63899;HTU21D;50070;-32.946;-60.652;2023-05-10T11:36:29;17.74;69.70
63899;HTU21D;50070;-32.946;-60.652;2023-05-10T11:38:57;17.79;69.74
63899;HTU21D;50070;-32.946;-60.652;2023-05-10T11:41:25;17.85;70.17
63899;HTU21D;50070;-32.946;-60.652;2023-05-10T11:43:53;17.84;70.53
63899;HTU21D;50070;-32.946;-60.652;2023-05-10T11:46:25;17.75;69.04
63899;HTU21D;50070;-32.946;-60.652;2023-05-10T11:49:02;17.78;69.39
63899;HTU21D;50070;-32.946;-60.652;2023-05-10T11:51:36;17.96;68.22
63899;HTU21D;50070;-32.946;-60.652;2023-05-10T11:54:07;18.11;67.47
63899;HTU21D;50070;-32.946;-60.652;2023-05-10T11:56:36;17.94;67.61
63899;HTU21D;50070;-32.946;-60.652;2023-05-10T11:59:04;18.04;66.99
63899;HTU21D;50070;-32.946;-60.652;2023-05-10T12:01:30;18.02;66.98
63899;HTU21D;50070;-32.946;-60.652;2023-05-10T12:03:57;18.02;65.56
63899;HTU21D;50070;-32.946;-60.652;2023-05-10T12:06:30;17.99;65.36
63899;HTU21D;50070;-32.946;-60.652;2023-05-10T12:08:58;17.99;65.24
63899;HTU21D;50070;-32.946;-60.652;2023-05-10T12:11:26;18.06;65.50
63899;HTU21D;50070;-32.946;-60.652;2023-05-10T12:13:54;18.10;65.33
63899;HTU21D;50070;-32.946;-60.652;2023-05-10T12:16:24;18.06;64.57
63899;HTU21D;50070;-32.946;-60.652;2023-05-10T12:18:52;18.26;64.88
63899;HTU21D;50070;-32.946;-60.652;2023-05-10T12:21:20;18.19;64.59
63899;HTU21D;50070;-32.946;-60.652;2023-05-10T12:23:59;18.19;65.77
63899;HTU21D;50070;-32.946;-60.652;2023-05-10T12:26:27;18.17;65.04
63899;HTU21D;50070;-32.946;-60.652;2023-05-10T12:28:54;18.40;64.37
63899;HTU21D;50070;-32.946;-60.652;2023-05-10T12:31:21;18.03;63.77
63899;HTU21D;50070;-32.946;-60.652;2023-05-10T12:33:48;18.02;63.95
63899;HTU21D;50070;-32.946;-60.652;2023-05-10T12:36:16;17.96;64.37
63899;HTU21D;50070;-32.946;-60.652;2023-05-10T12:38:45;18.08;63.56
63899;HTU21D;50070;-32.946;-60.652;2023-05-10T12:41:18;18.35;62.60
63899;HTU21D;50070;-32.946;-60.652;2023-05-10T12:43:45;18.20;63.15
63899;HTU21D;50070;-32.946;-60.652;2023-05-10T12:46:15;18.30;62.95
63899;HTU21D;50070;-32.946;-60.652;2023-05-10T12:48:43;18.28;63.08
63899;HTU21D;50070;-32.946;-60.652;2023-05-10T12:51:12;18.22;62.71
63899;HTU21D;50070;-32.946;-60.652;2023-05-10T12:53:41;18.17;62.25
63899;HTU21D;50070;-32.946;-60.652;2023-05-10T12:56:08;18.51;61.63
63899;HTU21D;50070;-32.946;-60.652;2023-05-10T12:58:35;18.67;61.34
63899;HTU21D;50070;-32.946;-60.652;2023-05-10T13:01:02;18.56;62.86
63899;HTU21D;50070;-32.946;-60.652;2023-05-10T13:03:30;18.63;60.69
63899;HTU21D;50070;-32.946;-60.652;2023-05-10T13:05:56;18.61;59.41
63899;HTU21D;50070;-32.946;-60.652;2023-05-10T13:08:23;18.52;59.34
63899;HTU21D;50070;-32.946;-60.652;2023-05-10T13:10:50;18.43;58.52
63899;HTU21D;50070;-32.946;-60.652;2023-05-10T13:13:17;18.53;58.91
63899;HTU21D;50070;-32.946;-60.652;2023-05-10T13:15:44;18.59;57.58
63899;HTU21D;50070;-32.946;-60.652;2023-05-10T13:18:10;18.55;57.23
63899;HTU21D;50070;-32.946;-60.652;2023-05-10T13:20:37;18.68;57.13
63899;HTU21D;50070;-32.946;-60.652;2023-05-10T13:23:04;18.63;56.11
63899;HTU21D;50070;-32.946;-60.652;2023-05-10T13:25:31;18.66;56.74
63899;HTU21D;50070;-32.946;-60.652;2023-05-10T13:27:58;18.70;56.95
63899;HTU21D;50070;-32.946;-60.652;2023-05-10T13:30:24;18.87;57.06
63899;HTU21D;50070;-32.946;-60.652;2023-05-10T13:32:51;18.89;56.57
63899;HTU21D;50070;-32.946;-60.652;2023-05-10T13:35:18;18.98;56.42
63899;HTU21D;50070;-32.946;-60.652;2023-05-10T13:37:44;19.15;55.39
63899;HTU21D;50070;-32.946;-60.652;2023-05-10T13:40:10;19.20;55.39
63899;HTU21D;50070;-32.946;-60.652;2023-05-10T13:42:37;19.03;55.48
63899;HTU21D;50070;-32.946;-60.652;2023-05-10T13:45:04;19.23;54.58
63899;HTU21D;50070;-32.946;-60.652;2023-05-10T13:47:31;19.14;54.34
63899;HTU21D;50070;-32.946;-60.652;2023-05-10T13:49:58;19.25;54.39
63899;HTU21D;50070;-32.946;-60.652;2023-05-10T13:52:26;19.55;54.05
63899;HTU21D;50070;-32.946;-60.652;2023-05-10T13:54:53;19.60;54.90
63899;HTU21D;50070;-32.946;-60.652;2023-05-10T13:57:21;19.79;54.29
63899;HTU21D;50070;-32.946;-60.652;2023-05-10T13:59:49;19.70;54.09
63899;HTU21D;50070;-32.946;-60.652;2023-05-10T14:02:15;19.66;54.83
63899;HTU21D;50070;-32.946;-60.652;2023-05-10T14:04:42;19.81;54.62
63899;HTU21D;50070;-32.946;-60.652;2023-05-10T14:07:09;19.86;54.68
63899;HTU21D;50070;-32.946;-60.652;2023-05-10T14:09:36;19.99;54.69
63899;HTU21D;50070;-32.946;-60.652;2023-05-10T14:12:02;20.21;54.15
63899;HTU21D;50070;-32.946;-60.652;2023-05-10T14:14:29;20.35;52.75
63899;HTU21D;50070;-32.946;-60.652;2023-05-10T14:16:55;20.17;53.23
63899;HTU21D;50070;-32.946;-60.652;2023-05-10T14:19:22;20.27;53.42
63899;HTU21D;50070;-32.946;-60.652;2023-05-10T14:21:49;20.24;53.73
63899;HTU21D;50070;-32.946;-60.652;2023-05-10T14:24:17;20.44;53.36
63899;HTU21D;50070;-32.946;-60.652;2023-05-10T14:26:44;20.32;54.22
63899;HTU21D;50070;-32.946;-60.652;2023-05-10T14:29:11;20.46;54.37
63899;HTU21D;50070;-32.946;-60.652;2023-05-10T14:31:38;20.42;57.09
63899;HTU21D;50070;-32.946;-60.652;2023-05-10T14:34:04;20.40;57.94
63899;HTU21D;50070;-32.946;-60.652;2023-05-10T14:36:31;20.56;57.99
63899;HTU21D;50070;-32.946;-60.652;2023-05-10T14:38:58;20.40;54.96
63899;HTU21D;50070;-32.946;-60.652;2023-05-10T14:41:25;20.37;53.65
63899;HTU21D;50070;-32.946;-60.652;2023-05-10T14:43:52;20.45;52.56
63899;HTU21D;50070;-32.946;-60.652;2023-05-10T14:46:18;20.33;52.72
63899;HTU21D;50070;-32.946;-60.652;2023-05-10T14:48:45;20.73;51.23
63899;HTU21D;50070;-32.946;-60.652;2023-05-10T14:51:12;20.73;50.37
63899;HTU21D;50070;-32.946;-60.652;2023-05-10T14:53:39;20.73;50.35
63899;HTU21D;50070;-32.946;-60.652;2023-05-10T14:56:06;20.72;50.53
63899;HTU21D;50070;-32.946;-60.652;2023-05-10T14:58:33;20.87;49.69
63899;HTU21D;50070;-32.946;-60.652;2023-05-10T15:00:59;20.45;49.72
63899;HTU21D;50070;-32.946;-60.652;2023-05-10T15:03:26;20.76;49.66
63899;HTU21D;50070;-32.946;-60.652;2023-05-10T15:05:53;20.61;49.80
63899;HTU21D;50070;-32.946;-60.652;2023-05-10T15:08:22;20.72;49.17
63899;HTU21D;50070;-32.946;-60.652;2023-05-10T15:10:50;20.86;48.92
63899;HTU21D;50070;-32.946;-60.652;2023-05-10T15:13:17;20.75;49.30
63899;HTU21D;50070;-32.946;-60.652;2023-05-10T15:15:43;20.51;49.87
63899;HTU21D;50070;-32.946;-60.652;2023-05-10T15:18:10;20.78;48.55
63899;HTU21D;50070;-32.946;-60.652;2023-05-10T15:20:36;20.76;49.68
63899;HTU21D;50070;-32.946;-60.652;2023-05-10T15:23:03;20.79;49.72
63899;HTU21D;50070;-32.946;-60.652;2023-05-10T15:25:30;21.04;50.08
63899;HTU21D;50070;-32.946;-60.652;2023-05-10T15:27:57;21.14;50.31
63899;HTU21D;50070;-32.946;-60.652;2023-05-10T15:30:23;20.98;50.82